createdAt,value
2022-09-26T00:03:38.805Z,13.35
2022-09-26T00:07:41.462Z,13.68
2022-09-26T00:11:45.098Z,13.73
2022-09-26T00:15:48.270Z,12.65
2022-09-26T00:19:51.048Z,12.38
2022-09-26T00:23:54.811Z,12.90
2022-09-26T00:27:57.478Z,11.25
2022-09-26T00:32:01.164Z,12.35
2022-09-26T00:36:05.022Z,11.05
2022-09-26T00:40:08.796Z,10.90
2022-09-26T00:44:33.266Z,9.90
2022-09-26T00:48:37.857Z,8.23
2022-09-26T00:52:46.043Z,10.20
2022-09-26T00:56:52.557Z,9.43
2022-09-26T01:05:00.037Z,6.47
2022-09-26T01:09:09.284Z,7.03
2022-09-26T01:13:13.241Z,8.13
2022-09-26T01:17:16.525Z,11.18
2022-09-26T01:21:53.354Z,11.40
2022-09-26T01:26:34.428Z,11.60
2022-09-26T01:30:51.520Z,10.80
2022-09-26T01:35:00.588Z,13.60
2022-09-26T01:39:30.745Z,12.48
2022-09-26T01:44:05.430Z,10.90
2022-09-26T01:48:19.930Z,10.25
2022-09-26T01:52:28.615Z,10.40
2022-09-26T01:56:37.273Z,10.35
2022-09-26T02:00:43.442Z,9.43
2022-09-26T02:04:50.311Z,9.27
2022-09-26T02:09:18.907Z,8.23
2022-09-26T02:13:39.866Z,8.18
2022-09-26T02:17:46.844Z,7.65
2022-09-26T02:21:49.718Z,7.75
2022-09-26T02:25:54.139Z,8.25
2022-09-26T02:29:57.675Z,9.75
2022-09-26T02:34:03.611Z,12.82
2022-09-26T02:38:06.961Z,10.48
2022-09-26T02:42:44.092Z,11.32
2022-09-26T02:47:19.461Z,10.93
2022-09-26T02:51:31.142Z,9.98
2022-09-26T02:55:36.882Z,10.82
2022-09-26T03:00:01.507Z,9.20
2022-09-26T03:04:19.795Z,9.80
2022-09-26T03:08:27.109Z,10.63
2022-09-26T03:12:33.042Z,10.73
2022-09-26T03:16:39.527Z,11.32
2022-09-26T03:20:44.635Z,10.68
2022-09-26T03:24:47.442Z,10.82
2022-09-26T03:28:56.469Z,11.00
2022-09-26T03:33:03.304Z,10.45
2022-09-26T03:37:07.214Z,8.88
2022-09-26T03:41:11.298Z,9.30
2022-09-26T03:45:21.185Z,8.93
2022-09-26T03:49:45.876Z,9.50
2022-09-26T03:53:50.622Z,11.00
2022-09-26T03:57:56.598Z,11.13
2022-09-26T04:02:06.948Z,10.60
2022-09-26T04:06:19.533Z,12.35
2022-09-26T04:10:24.252Z,12.95
2022-09-26T04:14:27.773Z,12.40
2022-09-26T04:18:35.541Z,11.25
2022-09-26T04:22:38.923Z,10.65
2022-09-26T04:26:43.888Z,11.13
2022-09-26T04:30:46.986Z,10.30
2022-09-26T04:34:50.770Z,10.77
2022-09-26T04:38:54.138Z,10.48
2022-09-26T04:42:58.200Z,11.10
2022-09-26T04:47:01.886Z,10.50
2022-09-26T04:51:24.511Z,10.13
2022-09-26T04:55:27.909Z,9.73
2022-09-26T04:59:30.677Z,10.68
2022-09-26T05:03:39.739Z,11.02
2022-09-26T05:07:45.190Z,11.20
2022-09-26T05:11:49.536Z,9.98
2022-09-26T05:15:55.578Z,10.02
2022-09-26T05:19:58.555Z,9.27
2022-09-26T05:24:27.495Z,8.20
2022-09-26T05:28:31.812Z,8.57
2022-09-26T05:32:35.807Z,8.30
2022-09-26T05:36:44.793Z,9.30
2022-09-26T05:40:56.632Z,9.88
2022-09-26T05:45:03.364Z,9.07
2022-09-26T05:49:07.120Z,8.95
2022-09-26T05:53:10.746Z,9.20
2022-09-26T05:57:13.643Z,9.43
2022-09-26T06:01:22.621Z,8.90
2022-09-26T06:05:36.289Z,8.65
2022-09-26T06:09:49.120Z,8.93
2022-09-26T06:14:01.134Z,8.35
2022-09-26T06:18:05.575Z,7.90
2022-09-26T06:22:08.417Z,7.95
2022-09-26T06:26:16.019Z,7.75
2022-09-26T06:30:19.771Z,8.57
2022-09-26T06:34:24.009Z,8.43
2022-09-26T06:38:56.034Z,8.07
2022-09-26T06:43:00.354Z,9.57
2022-09-26T06:47:23.881Z,8.48
2022-09-26T06:51:39.329Z,8.18
2022-09-26T06:55:54.758Z,9.05
2022-09-26T06:59:57.652Z,8.95
2022-09-26T07:04:27.313Z,8.23
2022-09-26T07:09:12.301Z,8.18
2022-09-26T07:13:29.800Z,8.95
2022-09-26T07:17:34.231Z,9.75
2022-09-26T07:21:47.549Z,8.48
2022-09-26T07:26:03.465Z,9.27
2022-09-26T07:30:09.193Z,9.52
2022-09-26T07:34:25.901Z,9.00
2022-09-26T07:38:29.435Z,8.50
2022-09-26T07:42:32.672Z,7.70
2022-09-26T07:46:54.214Z,8.98
2022-09-26T07:51:00.084Z,9.18
2022-09-26T07:55:22.136Z,8.20
2022-09-26T07:59:36.958Z,7.88
2022-09-26T08:04:20.642Z,9.00
2022-09-26T08:08:24.860Z,9.27
2022-09-26T08:12:38.343Z,10.02
2022-09-26T08:17:13.451Z,9.85
2022-09-26T08:21:18.072Z,10.93
2022-09-26T08:25:21.340Z,11.32
2022-09-26T08:29:43.760Z,10.68
2022-09-26T08:33:47.802Z,13.02
2022-09-26T08:37:50.565Z,12.45
2022-09-26T08:42:29.625Z,12.95
2022-09-26T08:47:05.084Z,12.90
2022-09-26T08:51:44.122Z,13.23
2022-09-26T08:55:51.079Z,15.50
2022-09-26T08:59:55.606Z,15.20
2022-09-26T09:04:13.052Z,16.38
2022-09-26T09:08:22.770Z,13.90
2022-09-26T09:13:03.872Z,14.68
2022-09-26T09:17:44.356Z,13.10
2022-09-26T09:22:54.147Z,9.25
2022-09-26T09:32:02.255Z,8.83
2022-09-26T09:36:48.340Z,6.25
2022-09-26T09:41:09.041Z,7.63
2022-09-26T09:45:28.453Z,8.00
2022-09-26T09:49:31.373Z,6.28
2022-09-26T09:53:54.032Z,8.30
2022-09-26T09:58:14.106Z,9.38
2022-09-26T10:02:51.683Z,6.57
2022-09-26T10:06:59.850Z,7.97
2022-09-26T10:11:15.021Z,7.22
2022-09-26T10:15:36.310Z,4.75
2022-09-26T10:19:44.224Z,4.50
2022-09-26T10:23:50.643Z,5.60
2022-09-26T10:28:38.566Z,7.22
2022-09-26T10:32:48.574Z,8.32
2022-09-26T10:37:30.332Z,9.57
2022-09-26T10:41:49.227Z,8.90
2022-09-26T10:46:18.045Z,6.22
2022-09-26T10:51:02.066Z,8.30
2022-09-26T10:55:26.452Z,6.07
2022-09-26T10:59:36.286Z,8.55
2022-09-26T11:03:46.675Z,8.32
2022-09-26T11:08:06.518Z,8.20
2022-09-26T11:12:27.805Z,8.45
2022-09-26T11:16:45.140Z,9.07
2022-09-26T11:20:52.938Z,8.93
2022-09-26T11:30:03.395Z,9.90
2022-09-26T11:34:18.634Z,11.10
2022-09-26T11:38:49.080Z,11.30
2022-09-26T11:43:03.125Z,10.10
2022-09-26T11:47:45.069Z,10.38
2022-09-26T11:52:14.747Z,7.93
2022-09-26T11:56:36.310Z,7.38
2022-09-26T12:01:21.079Z,7.90
2022-09-26T12:05:48.582Z,7.27
2022-09-26T12:10:03.619Z,5.50
2022-09-26T12:14:12.286Z,4.93
2022-09-26T12:18:24.554Z,3.80
2022-09-26T12:23:00.441Z,4.47
2022-09-26T12:27:36.962Z,4.35
2022-09-26T12:32:00.719Z,3.65
2022-09-26T12:36:20.706Z,4.47
2022-09-26T12:40:46.491Z,4.45
2022-09-26T12:45:14.049Z,4.80
2022-09-26T12:53:49.949Z,4.18
2022-09-26T12:57:58.610Z,5.00
2022-09-26T13:02:22.136Z,3.75
2022-09-26T13:06:32.562Z,4.00
2022-09-26T13:10:57.843Z,4.05
2022-09-26T13:15:16.779Z,3.70
2022-09-26T13:19:36.825Z,3.50
2022-09-26T13:23:45.729Z,2.53
2022-09-26T13:33:01.081Z,2.05
2022-09-26T13:37:10.375Z,2.05
2022-09-26T13:41:37.450Z,2.30
2022-09-26T13:46:16.236Z,2.00
2022-09-26T13:50:32.812Z,2.30
2022-09-26T13:54:52.584Z,2.13
2022-09-26T13:59:05.721Z,2.20
2022-09-26T14:08:08.902Z,1.90
2022-09-26T14:12:34.591Z,2.33
2022-09-26T14:16:44.334Z,2.03
2022-09-26T14:20:56.116Z,2.00
2022-09-26T14:25:00.095Z,2.13
2022-09-26T14:29:41.369Z,1.80
2022-09-26T14:33:59.553Z,1.50
2022-09-26T14:38:21.448Z,1.95
2022-09-26T14:42:49.519Z,1.67
2022-09-26T14:46:55.258Z,1.67
2022-09-26T14:51:27.835Z,1.77
2022-09-26T14:55:32.217Z,2.13
2022-09-26T14:59:41.651Z,2.20
2022-09-26T15:04:04.982Z,2.40
2022-09-26T15:08:24.374Z,2.63
2022-09-26T15:12:42.581Z,2.17
2022-09-26T15:16:51.318Z,2.10
2022-09-26T15:21:14.844Z,2.47
2022-09-26T15:25:33.554Z,2.45
2022-09-26T15:29:47.359Z,2.80
2022-09-26T15:34:06.177Z,2.05
2022-09-26T15:38:15.465Z,2.10
2022-09-26T15:42:48.359Z,2.83
2022-09-26T15:52:13.177Z,5.72
2022-09-26T15:56:25.675Z,5.32
2022-09-26T16:00:37.719Z,5.22
2022-09-26T16:04:44.574Z,5.25
2022-09-26T16:09:02.163Z,5.25
2022-09-26T16:13:27.175Z,4.18
2022-09-26T16:17:50.526Z,4.40
2022-09-26T16:22:18.765Z,7.28
2022-09-26T16:26:32.187Z,7.00
2022-09-26T16:30:36.836Z,6.80
2022-09-26T16:39:09.882Z,8.57
2022-09-26T16:48:18.087Z,7.60
2022-09-26T16:52:38.403Z,6.93
2022-09-26T16:56:52.795Z,7.18
2022-09-26T17:01:21.456Z,7.07
2022-09-26T17:09:44.898Z,6.28
2022-09-26T17:18:15.513Z,7.45
2022-09-26T17:22:24.354Z,7.55
2022-09-26T17:26:35.127Z,8.00
2022-09-26T17:30:43.587Z,6.53
2022-09-26T17:34:54.701Z,6.93
2022-09-26T17:38:59.801Z,12.45
2022-09-26T17:43:12.603Z,7.07
2022-09-26T17:47:23.856Z,6.70
2022-09-26T17:51:35.613Z,6.72
2022-09-26T17:55:41.532Z,6.35
2022-09-26T17:59:58.382Z,6.03
2022-09-26T18:04:21.424Z,6.53
2022-09-26T18:08:40.598Z,5.90
2022-09-26T18:12:50.309Z,5.60
2022-09-26T18:16:55.176Z,6.03
2022-09-26T18:21:05.548Z,5.68
2022-09-26T18:25:39.813Z,5.88
2022-09-26T18:29:56.066Z,5.60
2022-09-26T18:38:29.693Z,5.45
2022-09-26T18:42:35.353Z,6.22
2022-09-26T18:46:45.220Z,5.60
2022-09-26T19:00:16.881Z,4.30
2022-09-26T19:04:40.173Z,3.83
2022-09-26T19:26:42.446Z,4.85
2022-09-26T19:30:45.903Z,6.65
2022-09-26T19:34:57.691Z,4.78
2022-09-26T19:39:01.538Z,4.85
2022-09-26T19:43:05.991Z,3.95
2022-09-26T19:47:17.889Z,3.25
2022-09-26T19:51:26.023Z,2.90
2022-09-26T19:55:31.748Z,2.83
2022-09-26T19:59:38.351Z,3.03
2022-09-26T20:03:44.081Z,2.77
2022-09-26T20:07:51.042Z,3.35
2022-09-26T20:11:55.045Z,3.10
2022-09-26T20:15:58.541Z,2.60
2022-09-26T20:20:05.963Z,2.45
2022-09-26T20:24:17.034Z,2.97
2022-09-26T20:28:23.182Z,2.95
2022-09-26T20:36:51.713Z,2.45
2022-09-26T20:41:08.139Z,2.35
2022-09-26T20:45:19.606Z,2.10
2022-09-26T20:49:33.870Z,2.15
2022-09-26T20:53:37.389Z,2.08
2022-09-26T20:57:44.995Z,2.45
2022-09-26T21:01:50.209Z,2.45
2022-09-26T21:05:54.187Z,2.75
2022-09-26T21:09:58.983Z,2.58
2022-09-26T21:14:04.304Z,2.42
2022-09-26T21:18:28.566Z,2.10
2022-09-26T21:22:35.943Z,3.17
2022-09-26T21:26:39.868Z,2.70
2022-09-26T21:30:49.972Z,8.18
2022-09-26T21:35:01.845Z,2.97
2022-09-26T21:39:05.644Z,2.83
2022-09-26T21:43:25.280Z,2.40
2022-09-26T21:47:28.752Z,2.65
2022-09-26T21:51:32.764Z,2.45
2022-09-26T21:55:45.886Z,2.92
2022-09-26T21:59:57.000Z,2.65
2022-09-26T22:04:01.204Z,2.45
2022-09-26T22:08:06.379Z,2.83
2022-09-26T22:12:12.507Z,3.35
2022-09-26T22:16:15.888Z,2.55
2022-09-26T22:20:19.811Z,2.60
2022-09-26T22:24:23.239Z,2.78
2022-09-26T22:28:26.812Z,2.65
2022-09-26T22:32:29.467Z,2.63
2022-09-26T22:36:32.841Z,2.90
2022-09-26T22:40:35.939Z,2.88
2022-09-26T22:44:39.593Z,3.10
2022-09-26T22:48:45.938Z,2.97
2022-09-26T22:56:52.017Z,2.53
2022-09-26T23:00:55.093Z,2.67
2022-09-26T23:04:57.907Z,2.92
2022-09-26T23:09:05.459Z,2.88
2022-09-26T23:13:08.181Z,2.55
2022-09-26T23:17:11.238Z,3.17
2022-09-26T23:21:20.554Z,2.75
2022-09-26T23:25:23.678Z,3.00
2022-09-26T23:29:27.233Z,4.15
2022-09-26T23:33:30.038Z,3.70
2022-09-26T23:37:32.908Z,3.83
2022-09-26T23:41:35.674Z,3.60
2022-09-26T23:45:38.581Z,3.97
2022-09-26T23:49:41.312Z,4.35
2022-09-26T23:53:44.135Z,3.90
2022-09-26T23:57:46.984Z,3.67
